createdAt,value
2022-08-28T00:00:29.468Z,57.83
2022-08-28T00:02:57.454Z,57.93
2022-08-28T00:05:27.901Z,58.45
2022-08-28T00:07:54.979Z,58.99
2022-08-28T00:10:24.110Z,58.77
2022-08-28T00:12:53.572Z,58.73
2022-08-28T00:15:24.493Z,59.18
2022-08-28T00:17:51.285Z,59.18
2022-08-28T00:20:19.980Z,59.84
2022-08-28T00:22:47.622Z,59.86
2022-08-28T00:25:16.497Z,59.98
2022-08-28T00:27:52.590Z,59.48
2022-08-28T00:30:25.134Z,59.83
2022-08-28T00:32:54.563Z,59.45
2022-08-28T00:35:23.753Z,59.22
2022-08-28T00:37:51.916Z,59.26
2022-08-28T00:40:28.642Z,58.99
2022-08-28T00:43:04.436Z,58.78
2022-08-28T00:45:35.978Z,58.54
2022-08-28T00:48:04.339Z,58.50
2022-08-28T00:50:52.645Z,58.64
2022-08-28T00:53:20.541Z,58.36
2022-08-28T00:55:50.410Z,58.18
2022-08-28T00:58:18.108Z,58.59
2022-08-28T01:00:44.907Z,56.55
2022-08-28T01:03:11.768Z,57.42
2022-08-28T01:05:40.282Z,57.02
2022-08-28T01:08:07.144Z,56.88
2022-08-28T01:10:34.956Z,57.09
2022-08-28T01:13:02.968Z,57.71
2022-08-28T01:15:35.489Z,57.67
2022-08-28T01:18:08.627Z,57.87
2022-08-28T01:20:38.426Z,57.94
2022-08-28T01:23:22.457Z,58.44
2022-08-28T01:25:49.419Z,58.51
2022-08-28T01:28:16.765Z,58.07
2022-08-28T01:30:46.411Z,57.95
2022-08-28T01:33:14.858Z,57.94
2022-08-28T01:35:45.516Z,57.24
2022-08-28T01:38:12.577Z,57.80
2022-08-28T01:40:47.181Z,57.60
2022-08-28T01:43:21.137Z,57.74
2022-08-28T01:45:54.269Z,58.10
2022-08-28T01:48:23.653Z,57.81
2022-08-28T01:50:50.864Z,57.61
2022-08-28T01:53:20.077Z,57.08
2022-08-28T01:55:53.507Z,55.89
2022-08-28T01:58:21.692Z,56.49
2022-08-28T02:00:48.681Z,56.18
2022-08-28T02:03:16.256Z,55.48
2022-08-28T02:05:43.712Z,54.19
2022-08-28T02:08:10.778Z,54.37
2022-08-28T02:10:39.679Z,53.75
2022-08-28T02:13:07.692Z,53.58
2022-08-28T02:15:36.146Z,54.11
2022-08-28T02:18:04.130Z,53.34
2022-08-28T02:20:31.197Z,54.17
2022-08-28T02:22:58.774Z,54.59
2022-08-28T02:25:27.215Z,54.43
2022-08-28T02:27:54.668Z,55.12
2022-08-28T02:30:21.626Z,55.33
2022-08-28T02:32:48.409Z,55.10
2022-08-28T02:35:17.262Z,54.98
2022-08-28T02:37:46.001Z,55.04
2022-08-28T02:40:17.252Z,54.66
2022-08-28T02:42:44.407Z,54.80
2022-08-28T02:45:13.835Z,54.74
2022-08-28T02:47:43.723Z,54.45
2022-08-28T02:50:13.455Z,54.08
2022-08-28T02:52:41.400Z,54.15
2022-08-28T02:55:09.848Z,53.57
2022-08-28T02:57:37.701Z,54.50
2022-08-28T03:00:06.855Z,53.73
2022-08-28T03:02:34.202Z,54.01
2022-08-28T03:05:01.078Z,53.36
2022-08-28T03:07:29.391Z,53.67
2022-08-28T03:09:56.543Z,53.30
2022-08-28T03:12:26.495Z,53.67
2022-08-28T03:14:53.823Z,53.17
2022-08-28T03:17:22.122Z,53.05
2022-08-28T03:19:50.264Z,53.54
2022-08-28T03:22:38.487Z,53.36
2022-08-28T03:25:06.914Z,53.39
2022-08-28T03:27:34.171Z,53.63
2022-08-28T03:30:02.838Z,53.12
2022-08-28T03:32:31.773Z,53.25
2022-08-28T03:34:58.614Z,53.14
2022-08-28T03:37:25.759Z,53.22
2022-08-28T03:39:53.468Z,52.81
2022-08-28T03:42:20.359Z,53.43
2022-08-28T03:44:49.096Z,53.36
2022-08-28T03:47:16.765Z,53.21
2022-08-28T03:49:45.407Z,52.89
2022-08-28T03:52:12.719Z,53.17
2022-08-28T03:54:39.556Z,52.90
2022-08-28T03:57:07.608Z,52.98
2022-08-28T03:59:35.621Z,52.69
2022-08-28T04:02:02.577Z,52.59
2022-08-28T04:04:29.419Z,52.61
2022-08-28T04:06:56.193Z,52.58
2022-08-28T04:09:23.064Z,52.39
2022-08-28T04:11:49.860Z,52.27
2022-08-28T04:14:16.683Z,52.64
2022-08-28T04:16:43.781Z,52.44
2022-08-28T04:19:10.695Z,52.50
2022-08-28T04:21:37.549Z,52.23
2022-08-28T04:24:09.021Z,52.33
2022-08-28T04:26:36.861Z,52.39
2022-08-28T04:29:04.973Z,52.36
2022-08-28T04:31:32.966Z,52.23
2022-08-28T04:34:02.076Z,52.31
2022-08-28T04:36:29.407Z,52.04
2022-08-28T04:38:57.802Z,52.28
2022-08-28T04:41:24.571Z,52.30
2022-08-28T04:43:52.839Z,52.08
2022-08-28T04:46:20.570Z,52.44
2022-08-28T04:48:47.397Z,52.34
2022-08-28T04:51:17.913Z,52.05
2022-08-28T04:53:44.739Z,52.03
2022-08-28T04:56:14.062Z,51.68
2022-08-28T04:58:43.046Z,52.17
2022-08-28T05:01:13.799Z,52.33
2022-08-28T05:03:41.034Z,52.11
2022-08-28T05:06:09.520Z,52.28
2022-08-28T05:08:36.617Z,52.14
2022-08-28T05:11:22.074Z,51.78
2022-08-28T05:14:04.506Z,51.68
2022-08-28T05:16:32.502Z,51.78
2022-08-28T05:19:01.336Z,52.05
2022-08-28T05:21:28.451Z,51.45
2022-08-28T05:23:57.633Z,51.76
2022-08-28T05:26:26.833Z,51.92
2022-08-28T05:28:56.737Z,51.25
2022-08-28T05:31:25.133Z,51.40
2022-08-28T05:33:53.814Z,51.48
2022-08-28T05:36:23.302Z,51.24
2022-08-28T05:38:56.679Z,51.64
2022-08-28T05:41:27.559Z,51.74
2022-08-28T05:43:54.362Z,50.91
2022-08-28T05:46:22.409Z,51.15
2022-08-28T05:48:49.694Z,51.29
2022-08-28T05:51:20.280Z,51.27
2022-08-28T05:53:50.058Z,50.94
2022-08-28T05:56:26.918Z,51.11
2022-08-28T05:58:53.701Z,51.32
2022-08-28T06:01:29.098Z,51.52
2022-08-28T06:04:01.662Z,51.38
2022-08-28T06:06:31.541Z,51.27
2022-08-28T06:09:00.470Z,51.34
2022-08-28T06:11:30.927Z,51.51
2022-08-28T06:14:02.460Z,51.46
2022-08-28T06:16:32.726Z,51.73
2022-08-28T06:19:00.681Z,51.75
2022-08-28T06:21:28.600Z,52.20
2022-08-28T06:23:55.410Z,51.71
2022-08-28T06:26:23.096Z,52.02
2022-08-28T06:28:49.961Z,51.84
2022-08-28T06:31:24.249Z,51.86
2022-08-28T06:33:54.313Z,51.75
2022-08-28T06:36:21.880Z,51.30
2022-08-28T06:38:49.064Z,51.21
2022-08-28T06:41:16.203Z,51.23
2022-08-28T06:43:43.364Z,51.28
2022-08-28T06:46:10.246Z,51.42
2022-08-28T06:48:37.253Z,51.38
2022-08-28T06:51:07.474Z,50.82
2022-08-28T06:53:34.520Z,50.71
2022-08-28T06:56:08.732Z,50.85
2022-08-28T06:58:38.833Z,50.21
2022-08-28T07:01:11.241Z,49.78
2022-08-28T07:03:42.704Z,48.62
2022-08-28T07:06:14.103Z,48.74
2022-08-28T07:08:42.524Z,47.86
2022-08-28T07:11:25.954Z,47.74
2022-08-28T07:13:53.905Z,47.09
2022-08-28T07:16:23.059Z,46.69
2022-08-28T07:18:50.048Z,46.58
2022-08-28T07:21:16.927Z,46.50
2022-08-28T07:23:45.219Z,46.09
2022-08-28T07:26:20.948Z,45.99
2022-08-28T07:28:47.714Z,45.88
2022-08-28T07:31:18.060Z,45.90
2022-08-28T07:33:45.404Z,45.13
2022-08-28T07:36:25.578Z,44.73
2022-08-28T07:38:56.883Z,43.92
2022-08-28T07:41:27.063Z,43.56
2022-08-28T07:44:12.358Z,43.49
2022-08-28T07:46:40.667Z,43.54
2022-08-28T07:49:09.031Z,42.91
2022-08-28T07:51:37.038Z,42.80
2022-08-28T07:54:04.741Z,42.19
2022-08-28T07:56:32.243Z,42.16
2022-08-28T07:59:01.224Z,41.82
2022-08-28T08:01:30.926Z,41.62
2022-08-28T08:04:01.486Z,41.16
2022-08-28T08:06:34.279Z,40.74
2022-08-28T08:09:02.266Z,40.59
2022-08-28T08:11:32.629Z,40.34
2022-08-28T08:14:05.602Z,39.82
2022-08-28T08:16:39.315Z,40.17
2022-08-28T08:19:10.161Z,39.72
2022-08-28T08:21:38.091Z,39.86
2022-08-28T08:24:05.574Z,39.43
2022-08-28T08:26:33.248Z,39.20
2022-08-28T08:29:00.896Z,39.04
2022-08-28T08:31:33.900Z,38.60
2022-08-28T08:34:05.102Z,38.83
2022-08-28T08:36:34.682Z,39.57
2022-08-28T08:39:02.070Z,39.46
2022-08-28T08:41:57.718Z,39.67
2022-08-28T08:44:55.802Z,39.55
2022-08-28T08:47:27.031Z,39.51
2022-08-28T08:50:02.843Z,39.55
2022-08-28T08:52:33.457Z,39.31
2022-08-28T08:55:10.035Z,39.12
2022-08-28T08:57:39.114Z,39.03
2022-08-28T09:00:15.817Z,38.94
2022-08-28T09:03:19.545Z,38.32
2022-08-28T09:05:53.377Z,38.11
2022-08-28T09:08:40.106Z,38.06
2022-08-28T09:11:34.374Z,37.37
2022-08-28T09:14:06.956Z,37.51
2022-08-28T09:16:38.413Z,37.40
2022-08-28T09:19:06.338Z,38.07
2022-08-28T09:21:35.453Z,37.12
2022-08-28T09:24:10.898Z,36.29
2022-08-28T09:26:39.583Z,36.58
2022-08-28T09:29:15.986Z,35.84
2022-08-28T09:31:44.110Z,35.64
2022-08-28T09:34:28.549Z,36.00
2022-08-28T09:36:57.491Z,35.93
2022-08-28T09:39:35.912Z,35.42
2022-08-28T09:42:40.906Z,35.20
2022-08-28T09:45:18.410Z,33.93
2022-08-28T09:47:49.716Z,33.83
2022-08-28T09:50:19.177Z,34.85
2022-08-28T09:52:46.622Z,32.64
2022-08-28T09:55:22.108Z,31.93
2022-08-28T09:57:49.060Z,30.97
2022-08-28T10:00:16.642Z,29.74
2022-08-28T10:03:03.302Z,28.72
2022-08-28T10:05:41.742Z,27.97
2022-08-28T10:08:25.837Z,28.15
2022-08-28T10:10:58.756Z,27.21
2022-08-28T10:13:38.570Z,26.49
2022-08-28T10:16:28.920Z,27.17
2022-08-28T10:19:18.680Z,25.69
2022-08-28T10:21:48.266Z,25.59
2022-08-28T10:24:30.501Z,23.42
2022-08-28T10:27:12.733Z,22.68
2022-08-28T10:30:12.524Z,21.54
2022-08-28T10:33:02.252Z,21.32
2022-08-28T10:35:41.306Z,20.50
2022-08-28T10:38:41.925Z,21.15
2022-08-28T10:41:25.914Z,20.84
2022-08-28T10:43:54.720Z,20.52
2022-08-28T10:46:27.690Z,20.54
2022-08-28T10:49:03.196Z,21.15
2022-08-28T10:51:37.650Z,21.45
2022-08-28T10:54:18.891Z,22.03
2022-08-28T10:56:56.818Z,22.56
2022-08-28T10:59:25.769Z,22.60
2022-08-28T11:01:52.777Z,22.15
2022-08-28T11:04:25.688Z,21.46
2022-08-28T11:07:10.239Z,21.71
2022-08-28T11:09:46.054Z,20.78
2022-08-28T11:12:19.884Z,20.11
2022-08-28T11:14:51.045Z,19.11
2022-08-28T11:17:27.770Z,18.86
2022-08-28T11:20:09.797Z,18.80
2022-08-28T11:22:49.347Z,19.67
2022-08-28T11:25:32.470Z,20.46
2022-08-28T11:28:32.508Z,20.21
2022-08-28T11:31:05.151Z,20.77
2022-08-28T11:33:50.556Z,20.61
2022-08-28T11:36:20.059Z,20.87
2022-08-28T11:39:19.431Z,20.90
2022-08-28T11:42:10.787Z,21.33
2022-08-28T11:44:45.860Z,21.47
2022-08-28T11:47:36.959Z,21.91
2022-08-28T11:50:20.096Z,22.07
2022-08-28T11:52:49.557Z,22.16
2022-08-28T11:55:31.021Z,22.28
2022-08-28T12:00:33.611Z,22.24
2022-08-28T12:03:24.233Z,22.89
2022-08-28T12:05:55.562Z,22.55
2022-08-28T12:08:53.231Z,22.43
2022-08-28T12:11:44.953Z,22.45
2022-08-28T12:14:46.891Z,22.18
2022-08-28T12:17:17.900Z,21.82
2022-08-28T12:19:55.273Z,22.21
2022-08-28T12:22:44.620Z,22.59
2022-08-28T12:25:24.877Z,22.55
2022-08-28T12:27:53.216Z,22.43
2022-08-28T12:30:32.407Z,22.59
2022-08-28T12:33:32.021Z,22.73
2022-08-28T12:36:04.601Z,22.80
2022-08-28T12:38:33.562Z,22.73
2022-08-28T12:41:02.586Z,22.34
2022-08-28T12:43:45.669Z,22.90
2022-08-28T12:46:36.397Z,22.30
2022-08-28T12:49:25.302Z,21.99
2022-08-28T12:52:07.834Z,21.49
2022-08-28T12:54:35.359Z,21.89
2022-08-28T12:57:08.383Z,21.68
2022-08-28T12:59:50.226Z,21.46
2022-08-28T13:02:36.377Z,21.47
2022-08-28T13:05:12.087Z,20.69
2022-08-28T13:07:51.420Z,20.24
2022-08-28T13:10:24.553Z,20.56
2022-08-28T13:13:05.443Z,20.31
2022-08-28T13:15:51.632Z,21.36
2022-08-28T13:18:35.440Z,20.82
2022-08-28T13:21:17.461Z,20.75
2022-08-28T13:24:00.144Z,20.79
2022-08-28T13:26:33.201Z,20.69
2022-08-28T13:29:02.906Z,20.57
2022-08-28T13:31:35.903Z,20.79
2022-08-28T13:34:07.096Z,21.21
2022-08-28T13:36:44.680Z,22.01
2022-08-28T13:39:13.622Z,20.76
2022-08-28T13:41:41.699Z,20.18
2022-08-28T13:44:09.190Z,19.60
2022-08-28T13:46:36.156Z,19.35
2022-08-28T13:49:02.958Z,19.30
2022-08-28T13:51:29.833Z,19.24
2022-08-28T13:53:58.086Z,19.68
2022-08-28T13:56:27.644Z,20.01
2022-08-28T13:58:57.847Z,20.06
2022-08-28T14:01:48.680Z,20.74
2022-08-28T14:04:15.866Z,20.64
2022-08-28T14:06:44.131Z,21.17
2022-08-28T14:09:17.545Z,21.72
2022-08-28T14:11:49.741Z,22.33
2022-08-28T14:14:17.142Z,22.88
2022-08-28T14:16:45.659Z,22.99
2022-08-28T14:19:12.883Z,23.24
2022-08-28T14:21:41.570Z,23.62
2022-08-28T14:24:09.224Z,23.85
2022-08-28T14:26:36.392Z,24.01
2022-08-28T14:29:06.638Z,24.43
2022-08-28T14:31:36.047Z,24.70
2022-08-28T14:34:05.563Z,25.18
2022-08-28T14:36:33.318Z,25.93
2022-08-28T14:39:06.198Z,25.59
2022-08-28T14:41:34.556Z,26.23
2022-08-28T14:44:02.104Z,26.77
2022-08-28T14:46:34.195Z,26.83
2022-08-28T14:49:03.916Z,26.84
2022-08-28T14:51:33.394Z,27.61
2022-08-28T14:54:01.713Z,27.35
2022-08-28T14:56:31.556Z,27.94
2022-08-28T14:59:00.301Z,28.34
2022-08-28T15:01:40.469Z,28.35
2022-08-28T15:04:11.259Z,28.80
2022-08-28T15:06:38.462Z,29.13
2022-08-28T15:09:05.549Z,29.36
2022-08-28T15:11:32.432Z,29.51
2022-08-28T15:13:59.217Z,29.46
2022-08-28T15:16:31.144Z,29.94
2022-08-28T15:18:59.401Z,29.83
2022-08-28T15:21:35.439Z,29.96
2022-08-28T15:24:04.031Z,29.81
2022-08-28T15:26:32.103Z,30.17
2022-08-28T15:29:02.301Z,29.89
2022-08-28T15:31:31.236Z,30.07
2022-08-28T15:33:58.480Z,30.27
2022-08-28T15:36:25.313Z,29.66
2022-08-28T15:39:10.882Z,29.83
2022-08-28T15:41:38.558Z,30.32
2022-08-28T15:44:05.883Z,30.03
2022-08-28T15:46:34.511Z,30.05
2022-08-28T15:49:04.141Z,30.66
2022-08-28T15:51:35.884Z,29.37
2022-08-28T15:54:03.010Z,29.63
2022-08-28T15:56:29.837Z,29.48
2022-08-28T15:58:56.822Z,29.53
2022-08-28T16:01:23.918Z,29.41
2022-08-28T16:03:50.825Z,29.62
2022-08-28T16:06:20.835Z,29.45
2022-08-28T16:08:49.148Z,29.68
2022-08-28T16:11:20.829Z,29.85
2022-08-28T16:13:47.937Z,29.93
2022-08-28T16:16:14.808Z,30.05
2022-08-28T16:18:41.939Z,30.32
2022-08-28T16:21:09.223Z,30.42
2022-08-28T16:23:37.217Z,30.22
2022-08-28T16:26:05.863Z,30.86
2022-08-28T16:28:33.363Z,30.69
2022-08-28T16:31:11.684Z,30.70
2022-08-28T16:33:47.750Z,30.87
2022-08-28T16:36:15.759Z,31.00
2022-08-28T16:38:46.160Z,31.38
2022-08-28T16:41:19.642Z,31.15
2022-08-28T16:43:47.242Z,31.42
2022-08-28T16:46:20.092Z,31.27
2022-08-28T16:48:48.042Z,31.58
2022-08-28T16:51:16.260Z,31.54
2022-08-28T16:53:43.474Z,32.04
2022-08-28T16:56:12.229Z,32.14
2022-08-28T16:58:39.944Z,32.11
2022-08-28T17:01:08.353Z,32.17
2022-08-28T17:03:38.708Z,32.34
2022-08-28T17:06:18.504Z,32.03
2022-08-28T17:08:45.384Z,32.46
2022-08-28T17:11:12.970Z,32.46
2022-08-28T17:13:40.354Z,32.39
2022-08-28T17:16:08.178Z,32.63
2022-08-28T17:18:35.376Z,32.77
2022-08-28T17:21:20.849Z,32.72
2022-08-28T17:23:47.903Z,32.86
2022-08-28T17:26:15.417Z,33.06
2022-08-28T17:28:42.988Z,33.11
2022-08-28T17:31:11.291Z,32.98
2022-08-28T17:33:40.567Z,33.29
2022-08-28T17:36:08.857Z,33.51
2022-08-28T17:38:48.627Z,33.49
2022-08-28T17:41:15.453Z,33.80
2022-08-28T17:43:42.311Z,33.80
2022-08-28T17:46:09.189Z,33.79
2022-08-28T17:48:37.012Z,33.71
2022-08-28T17:51:04.830Z,33.89
2022-08-28T17:53:31.705Z,34.00
2022-08-28T17:55:59.114Z,34.14
2022-08-28T17:58:25.902Z,34.38
2022-08-28T18:00:52.998Z,34.46
2022-08-28T18:03:19.861Z,34.46
2022-08-28T18:05:46.668Z,35.00
2022-08-28T18:08:13.702Z,34.83
2022-08-28T18:10:40.779Z,34.99
2022-08-28T18:13:07.641Z,35.22
2022-08-28T18:15:34.786Z,35.29
2022-08-28T18:18:04.814Z,35.38
2022-08-28T18:20:31.675Z,35.17
2022-08-28T18:22:58.555Z,35.50
2022-08-28T18:25:50.730Z,35.48
2022-08-28T18:28:22.471Z,35.64
2022-08-28T18:30:51.002Z,35.63
2022-08-28T18:33:22.263Z,35.85
2022-08-28T18:35:50.508Z,36.21
2022-08-28T18:38:18.532Z,36.24
2022-08-28T18:40:45.586Z,36.40
2022-08-28T18:43:13.882Z,36.63
2022-08-28T18:45:40.850Z,36.59
2022-08-28T18:48:12.602Z,36.91
2022-08-28T18:50:43.221Z,36.96
2022-08-28T18:53:12.824Z,36.97
2022-08-28T18:55:39.711Z,36.93
2022-08-28T18:58:06.988Z,36.96
2022-08-28T19:00:34.405Z,37.07
2022-08-28T19:03:01.394Z,37.44
2022-08-28T19:05:28.375Z,37.39
2022-08-28T19:07:55.179Z,37.57
2022-08-28T19:10:33.447Z,37.72
2022-08-28T19:13:01.964Z,38.17
2022-08-28T19:15:29.703Z,38.31
2022-08-28T19:17:56.814Z,38.41
2022-08-28T19:20:23.931Z,38.71
2022-08-28T19:22:50.785Z,38.64
2022-08-28T19:25:27.883Z,38.75
2022-08-28T19:27:56.414Z,38.95
2022-08-28T19:30:28.066Z,39.07
2022-08-28T19:32:55.299Z,39.13
2022-08-28T19:35:24.574Z,39.28
2022-08-28T19:37:52.667Z,39.51
2022-08-28T19:40:20.678Z,39.52
2022-08-28T19:42:49.898Z,39.56
2022-08-28T19:45:17.269Z,39.80
2022-08-28T19:47:44.204Z,39.93
2022-08-28T19:50:12.886Z,39.81
2022-08-28T19:52:40.212Z,40.39
2022-08-28T19:55:08.003Z,40.44
2022-08-28T19:57:35.523Z,40.44
2022-08-28T20:00:04.178Z,40.38
2022-08-28T20:02:31.172Z,40.33
2022-08-28T20:04:58.043Z,40.60
2022-08-28T20:07:25.147Z,40.84
2022-08-28T20:09:52.434Z,40.91
2022-08-28T20:12:19.981Z,40.96
2022-08-28T20:14:47.065Z,41.27
2022-08-28T20:17:14.138Z,41.49
2022-08-28T20:19:41.584Z,41.63
2022-08-28T20:22:08.711Z,41.84
2022-08-28T20:24:35.547Z,41.65
2022-08-28T20:27:02.592Z,41.90
2022-08-28T20:29:29.691Z,41.81
2022-08-28T20:31:56.502Z,42.39
2022-08-28T20:34:24.570Z,42.30
2022-08-28T20:36:51.558Z,42.55
2022-08-28T20:39:20.073Z,42.20
2022-08-28T20:41:49.301Z,43.11
2022-08-28T20:44:18.550Z,43.27
2022-08-28T20:46:51.176Z,43.16
2022-08-28T20:49:22.197Z,43.75
2022-08-28T20:51:52.796Z,43.56
2022-08-28T20:54:21.539Z,43.84
2022-08-28T20:56:49.365Z,44.19
2022-08-28T20:59:16.845Z,44.12
2022-08-28T21:01:43.741Z,44.42
2022-08-28T21:04:10.849Z,44.32
2022-08-28T21:06:38.366Z,44.59
2022-08-28T21:09:05.230Z,45.04
2022-08-28T21:11:32.067Z,44.93
2022-08-28T21:13:58.934Z,45.57
2022-08-28T21:16:26.161Z,45.62
2022-08-28T21:19:14.560Z,46.35
2022-08-28T21:21:40.859Z,46.43
2022-08-28T21:24:10.754Z,46.74
2022-08-28T21:26:40.578Z,47.50
2022-08-28T21:29:09.957Z,48.35
2022-08-28T21:31:41.326Z,49.10
2022-08-28T21:34:09.512Z,49.76
2022-08-28T21:36:38.453Z,49.96
2022-08-28T21:39:06.168Z,50.98
2022-08-28T21:41:33.260Z,51.51
2022-08-28T21:44:00.341Z,51.58
2022-08-28T21:46:27.819Z,51.69
2022-08-28T21:48:56.288Z,51.75
2022-08-28T21:51:24.488Z,51.57
2022-08-28T21:53:51.542Z,52.01
2022-08-28T21:56:22.857Z,52.49
2022-08-28T21:58:51.108Z,52.27
2022-08-28T22:01:20.632Z,52.84
2022-08-28T22:03:47.541Z,52.99
2022-08-28T22:06:18.495Z,52.89
2022-08-28T22:08:47.169Z,52.71
2022-08-28T22:11:15.729Z,53.20
2022-08-28T22:13:48.537Z,53.06
2022-08-28T22:16:15.981Z,53.19
2022-08-28T22:18:42.917Z,53.14
2022-08-28T22:21:34.518Z,53.51
2022-08-28T22:24:01.443Z,54.30
2022-08-28T22:26:28.474Z,54.92
2022-08-28T22:28:56.134Z,55.16
2022-08-28T22:31:23.984Z,56.06
2022-08-28T22:33:52.257Z,56.27
2022-08-28T22:36:20.750Z,56.45
2022-08-28T22:38:53.202Z,56.80
2022-08-28T22:41:20.830Z,56.82
2022-08-28T22:43:49.858Z,57.05
2022-08-28T22:46:17.025Z,57.31
2022-08-28T22:48:43.904Z,56.89
2022-08-28T22:51:14.063Z,57.15
2022-08-28T22:53:43.338Z,57.04
2022-08-28T22:56:11.509Z,57.90
2022-08-28T22:58:39.617Z,57.32
2022-08-28T23:01:11.863Z,57.80
2022-08-28T23:03:39.653Z,57.82
2022-08-28T23:06:07.030Z,57.99
2022-08-28T23:08:34.324Z,58.20
2022-08-28T23:11:01.622Z,58.95
2022-08-28T23:13:30.036Z,59.28
2022-08-28T23:15:56.922Z,59.12
2022-08-28T23:18:24.797Z,58.98
2022-08-28T23:20:52.569Z,59.33
2022-08-28T23:23:19.618Z,59.63
2022-08-28T23:25:46.786Z,60.03
2022-08-28T23:28:13.629Z,59.10
2022-08-28T23:30:41.407Z,57.53
2022-08-28T23:33:19.749Z,57.25
2022-08-28T23:35:50.438Z,57.15
2022-08-28T23:38:17.274Z,56.40
2022-08-28T23:40:44.555Z,56.12
2022-08-28T23:43:11.995Z,56.47
2022-08-28T23:45:40.544Z,56.30
2022-08-28T23:48:08.275Z,56.22
2022-08-28T23:50:35.617Z,56.75
2022-08-28T23:53:04.034Z,56.53
2022-08-28T23:55:31.538Z,56.39
2022-08-28T23:58:00.592Z,57.05
